Flight Information

DEPARTURE
NORTH BEND, OR
Elevation:
17
Runways:
13/31 - 4470x150 - ASPH-G
5/23 - 5980x150 - ASPH-G
Ground:
127.1
Tower:
NORTH BEND TOWER 118.45
DESTINATION
PORTLAND, OR
Elevation:
30
TPA:
1030 (est.)
Runways:
10R/28L - 11000x150 - CONC-G
3/21 - 6000x150 - ASPH-E
10L/28R - 9825x150 - ASPH-E
Active PE Arriving:
28L - 28R
Active PE Approach:
VISUAL APPROACHES IN USE.
Current PE ATIS:
K
Altimeter:
30.15
Remarks:
SIMULTANEOUS APPROACHES TO PARALLEL RUNWAYS IN USE. V F R DEPARTURES CONTACT CLEARANCE DELIVERY, ADVISE ON COURSE HEADING, ALTITUDE, AND IF FLIGHT FOLLOWING IS REQUESTED. NOTICE TO AIRMEN RUNWAY 3 2 1 CLOSED.
ATIS:
128.35 503-493-7557
Tower:
PORTLAND TOWER
123.775 RWY 03-21, 10R-28L
118.7 RWY 10L-28R
Ground:
121.9


148.2 NM28° True-18° Var9° HDG

Flight Plan:
(click to file on line)

1. Type
2. Aircraft Identification
3. Aircraft Type / Special Equipment
4. True Airspeed
kts
5. Departure Airport
(ICAO code)
6. Arriving Airport
(ICAO code)
7. Cruising Altitude
ft
8. Alternate Airport
(ICAO code)
9. Route of Flight
10. Remarks


00:00:00 Departure ATIS: Destination ATIS:

Clearance Limit:
Route:
Altitude: Expect in minutes
Frequency:
Transponder: (7500 Hijack / 7600 Lost Comms / 7700 Emergency)


KOTH 211656Z 13003KT 10SM CLR 22/12 A3005 RMK AO2 SLP176 T02170117
Time: 2021-09-21T16:56:00Z
1632246948
Winds: 130 @ 3 kts
Visibility: 10.0 sm
Clouds (AGL): CLR
Temperature: 21.7 C
Dew Point: 11.7 C
Pressure: 30.050198 in Hgbr

KPDX 211753Z 28008KT 10SM SCT250 19/09 A3013 RMK AO2 SLP203 T01890094 10189 20111 58017
Time: 2021-09-21T17:53:00Z
1632246948
Winds: 280 @ 8 kts
Visibility: 10.0 sm
Clouds (AGL): SCT 25000
Temperature: 18.9 C
Dew Point: 9.4 C
Pressure: 30.129921 in Hgbr


Notes:

Data extracted from FAA Digital Chart Supplement. Effective: 0901Z Thursday, AUG 12, 2021 to 0901Z Thursday, OCT 7, 2021
Current ATIS data is provided courtisy of PilotEdge.